createdAt,value
2018-11-03T00:00:20.298Z,54.18
2018-11-03T00:02:49.512Z,54.84
2018-11-03T00:05:19.019Z,54.62
2018-11-03T00:07:48.296Z,53.50
2018-11-03T00:10:19.671Z,53.77
2018-11-03T00:12:48.832Z,53.46
2018-11-03T00:15:18.839Z,53.88
2018-11-03T00:17:48.017Z,53.42
2018-11-03T00:20:17.974Z,53.86
2018-11-03T00:22:47.128Z,54.15
2018-11-03T00:25:17.420Z,54.59
2018-11-03T00:27:46.617Z,54.65
2018-11-03T00:30:16.745Z,55.74
2018-11-03T00:32:45.984Z,55.06
2018-11-03T00:35:15.940Z,55.41
2018-11-03T00:37:45.084Z,55.30
2018-11-03T00:40:16.169Z,55.52
2018-11-03T00:42:45.448Z,56.00
2018-11-03T00:45:17.010Z,56.11
2018-11-03T00:47:46.209Z,55.55
2018-11-03T00:50:17.187Z,56.53
2018-11-03T00:52:46.341Z,55.51
2018-11-03T00:55:16.609Z,56.29
2018-11-03T00:57:45.732Z,56.02
2018-11-03T01:00:18.124Z,56.44
2018-11-03T01:02:48.365Z,55.73
2018-11-03T01:05:19.293Z,56.21
2018-11-03T01:07:48.467Z,55.54
2018-11-03T01:10:18.659Z,55.86
2018-11-03T01:12:47.815Z,56.42
2018-11-03T01:15:18.474Z,56.69
2018-11-03T01:17:47.657Z,56.80
2018-11-03T01:20:18.213Z,56.45
2018-11-03T01:22:47.367Z,56.38
2018-11-03T01:25:17.498Z,57.12
2018-11-03T01:27:46.666Z,56.63
2018-11-03T01:30:17.742Z,55.99
2018-11-03T01:32:46.894Z,56.42
2018-11-03T01:35:16.843Z,56.14
2018-11-03T01:37:46.043Z,56.04
2018-11-03T01:40:16.618Z,55.87
2018-11-03T01:42:45.734Z,56.29
2018-11-03T01:45:16.575Z,56.61
2018-11-03T01:47:45.734Z,56.99
2018-11-03T01:50:15.861Z,56.54
2018-11-03T01:52:45.001Z,57.28
2018-11-03T01:55:15.034Z,56.36
2018-11-03T01:57:44.185Z,56.35
2018-11-03T02:00:17.492Z,56.13
2018-11-03T02:02:46.660Z,56.19
2018-11-03T02:05:16.695Z,56.70
2018-11-03T02:07:45.891Z,56.57
2018-11-03T02:10:16.114Z,56.27
2018-11-03T02:12:45.276Z,56.74
2018-11-03T02:15:15.115Z,56.83
2018-11-03T02:17:44.265Z,56.49
2018-11-03T02:20:13.690Z,57.09
2018-11-03T02:22:43.639Z,57.22
2018-11-03T02:25:13.124Z,57.51
2018-11-03T02:27:42.420Z,58.03
2018-11-03T02:30:12.866Z,58.22
2018-11-03T02:32:42.026Z,58.43
2018-11-03T02:35:11.946Z,59.19
2018-11-03T02:37:41.555Z,59.55
2018-11-03T02:40:13.076Z,60.24
2018-11-03T02:42:42.752Z,60.21
2018-11-03T02:45:12.073Z,60.33
2018-11-03T02:47:41.483Z,61.00
2018-11-03T02:50:12.460Z,60.36
2018-11-03T02:52:41.735Z,61.27
2018-11-03T02:55:11.001Z,61.13
2018-11-03T02:57:40.164Z,61.16
2018-11-03T03:00:10.478Z,61.27
2018-11-03T03:02:39.850Z,61.53
2018-11-03T03:05:10.448Z,61.93
2018-11-03T03:07:39.746Z,61.94
2018-11-03T03:10:10.240Z,62.38
2018-11-03T03:12:39.424Z,61.97
2018-11-03T03:15:10.094Z,61.47
2018-11-03T03:17:39.248Z,61.87
2018-11-03T03:20:09.887Z,61.41
2018-11-03T03:22:39.066Z,61.80
2018-11-03T03:25:09.200Z,62.10
2018-11-03T03:27:38.395Z,61.71
2018-11-03T03:30:07.763Z,62.30
2018-11-03T03:32:36.907Z,61.90
2018-11-03T03:35:06.684Z,62.60
2018-11-03T03:37:35.851Z,62.05
2018-11-03T03:40:06.062Z,62.89
2018-11-03T03:42:35.232Z,63.10
2018-11-03T03:45:05.124Z,62.92
2018-11-03T03:47:34.259Z,62.70
2018-11-03T03:50:03.441Z,63.08
2018-11-03T03:52:32.592Z,62.68
2018-11-03T03:55:01.799Z,62.98
2018-11-03T03:57:30.943Z,63.23
2018-11-03T04:00:01.028Z,62.97
2018-11-03T04:02:30.198Z,63.03
2018-11-03T04:04:59.478Z,63.46
2018-11-03T04:07:28.742Z,63.50
2018-11-03T04:09:57.921Z,63.31
2018-11-03T04:12:27.056Z,63.49
2018-11-03T04:14:56.331Z,62.91
2018-11-03T04:17:25.495Z,63.15
2018-11-03T04:19:54.668Z,64.03
2018-11-03T04:22:23.838Z,63.22
2018-11-03T04:24:53.183Z,63.00
2018-11-03T04:27:22.358Z,63.30
2018-11-03T04:29:51.569Z,63.47
2018-11-03T04:32:20.703Z,63.66
2018-11-03T04:34:52.919Z,64.57
2018-11-03T04:37:22.148Z,64.90
2018-11-03T04:39:51.395Z,64.22
2018-11-03T04:42:20.559Z,64.86
2018-11-03T04:44:49.738Z,65.57
2018-11-03T04:47:18.976Z,65.48
2018-11-03T04:49:48.155Z,65.87
2018-11-03T04:52:17.782Z,65.93
2018-11-03T04:54:46.954Z,65.71
2018-11-03T04:57:17.170Z,65.49
2018-11-03T04:59:46.349Z,65.74
2018-11-03T05:02:15.948Z,64.82
2018-11-03T05:04:45.188Z,64.88
2018-11-03T05:07:15.054Z,64.49
2018-11-03T05:09:44.491Z,64.83
2018-11-03T05:12:14.574Z,65.46
2018-11-03T05:14:43.751Z,64.88
2018-11-03T05:17:13.225Z,65.09
2018-11-03T05:19:42.508Z,65.29
2018-11-03T05:22:11.743Z,65.63
2018-11-03T05:24:40.967Z,65.23
2018-11-03T05:27:10.186Z,65.88
2018-11-03T05:29:39.415Z,65.73
2018-11-03T05:32:08.630Z,65.29
2018-11-03T05:34:37.901Z,64.69
2018-11-03T05:37:07.207Z,64.64
2018-11-03T05:39:36.409Z,64.72
2018-11-03T05:42:06.232Z,65.53
2018-11-03T05:44:35.689Z,65.60
2018-11-03T05:47:04.948Z,64.92
2018-11-03T05:49:34.288Z,64.90
2018-11-03T05:52:03.489Z,65.99
2018-11-03T05:54:32.656Z,65.77
2018-11-03T05:57:01.843Z,66.07
2018-11-03T05:59:31.020Z,66.82
2018-11-03T06:02:00.252Z,66.44
2018-11-03T06:04:29.465Z,67.07
2018-11-03T06:06:58.609Z,66.59
2018-11-03T06:09:27.742Z,67.23
2018-11-03T06:11:56.921Z,66.82
2018-11-03T06:14:27.124Z,66.57
2018-11-03T06:16:56.324Z,66.62
2018-11-03T06:19:25.479Z,67.29
2018-11-03T06:21:54.704Z,66.74
2018-11-03T06:24:23.912Z,66.51
2018-11-03T06:26:53.163Z,66.30
2018-11-03T06:29:22.314Z,65.94
2018-11-03T06:31:51.563Z,65.28
2018-11-03T06:34:20.686Z,65.15
2018-11-03T06:36:49.957Z,64.84
2018-11-03T06:39:19.158Z,64.08
2018-11-03T06:41:48.343Z,63.21
2018-11-03T06:44:17.764Z,62.88
2018-11-03T06:46:47.024Z,61.36
2018-11-03T06:49:20.240Z,60.33
2018-11-03T06:51:50.425Z,59.36
2018-11-03T06:54:19.656Z,57.60
2018-11-03T06:56:49.304Z,57.67
2018-11-03T06:59:18.910Z,56.86
2018-11-03T07:01:48.127Z,56.76
2018-11-03T07:04:17.383Z,56.18
2018-11-03T07:06:46.686Z,55.68
2018-11-03T07:09:15.865Z,54.80
2018-11-03T07:11:45.081Z,53.81
2018-11-03T07:14:14.227Z,53.63
2018-11-03T07:16:43.398Z,54.54
2018-11-03T07:19:12.625Z,53.31
2018-11-03T07:21:41.937Z,53.33
2018-11-03T07:24:11.381Z,51.47
2018-11-03T07:26:40.552Z,52.17
2018-11-03T07:29:10.211Z,51.80
2018-11-03T07:31:39.422Z,52.98
2018-11-03T07:34:08.907Z,52.79
2018-11-03T07:36:38.075Z,52.59
2018-11-03T07:39:08.200Z,52.43
2018-11-03T07:41:37.539Z,52.47
2018-11-03T07:44:07.879Z,52.80
2018-11-03T07:46:37.063Z,52.90
2018-11-03T07:49:06.945Z,53.50
2018-11-03T07:51:35.913Z,53.66
2018-11-03T07:54:05.185Z,54.49
2018-11-03T07:56:34.548Z,55.44
2018-11-03T07:59:03.831Z,54.63
2018-11-03T08:01:33.043Z,55.04
2018-11-03T08:04:02.190Z,55.26
2018-11-03T08:06:31.434Z,55.91
2018-11-03T08:09:00.638Z,56.83
2018-11-03T08:11:29.823Z,58.31
2018-11-03T08:13:58.996Z,58.59
2018-11-03T08:16:28.227Z,57.56
2018-11-03T08:18:57.404Z,58.16
2018-11-03T08:21:26.609Z,58.94
2018-11-03T08:23:55.906Z,58.70
2018-11-03T08:26:25.008Z,59.72
2018-11-03T08:28:54.294Z,59.15
2018-11-03T08:31:23.521Z,58.43
2018-11-03T08:33:52.742Z,58.22
2018-11-03T08:36:22.048Z,57.48
2018-11-03T08:38:51.233Z,58.91
2018-11-03T08:41:20.384Z,57.25
2018-11-03T08:43:49.763Z,57.27
2018-11-03T08:46:18.943Z,57.85
2018-11-03T08:48:48.213Z,58.41
2018-11-03T08:51:17.361Z,57.38
2018-11-03T08:53:46.585Z,57.28
2018-11-03T08:56:15.787Z,57.61
2018-11-03T08:58:45.000Z,57.38
2018-11-03T09:01:14.215Z,58.41
2018-11-03T09:03:43.428Z,58.07
2018-11-03T09:06:12.608Z,57.67
2018-11-03T09:08:41.846Z,58.58
2018-11-03T09:11:11.318Z,58.56
2018-11-03T09:13:40.487Z,58.39
2018-11-03T09:16:10.143Z,58.56
2018-11-03T09:18:39.335Z,57.01
2018-11-03T09:21:09.041Z,57.80
2018-11-03T09:23:38.249Z,58.57
2018-11-03T09:26:07.501Z,58.13
2018-11-03T09:28:36.819Z,57.05
2018-11-03T09:31:06.053Z,57.27
2018-11-03T09:33:35.229Z,56.88
2018-11-03T09:36:04.423Z,56.60
2018-11-03T09:38:33.660Z,56.98
2018-11-03T09:41:02.926Z,56.79
2018-11-03T09:43:32.204Z,55.95
2018-11-03T09:46:01.299Z,55.56
2018-11-03T09:48:30.472Z,55.68
2018-11-03T09:50:59.690Z,54.96
2018-11-03T09:53:28.852Z,55.27
2018-11-03T09:55:58.279Z,55.14
2018-11-03T09:58:27.464Z,55.30
2018-11-03T10:00:56.687Z,54.48
2018-11-03T10:03:26.001Z,56.27
2018-11-03T10:05:55.713Z,55.45
2018-11-03T10:08:24.965Z,53.85
2018-11-03T10:10:54.160Z,54.27
2018-11-03T10:13:23.401Z,55.21
2018-11-03T10:15:52.712Z,54.65
2018-11-03T10:18:21.873Z,54.60
2018-11-03T10:20:51.064Z,54.12
2018-11-03T10:23:20.298Z,54.35
2018-11-03T10:25:49.440Z,55.23
2018-11-03T10:28:18.703Z,55.63
2018-11-03T10:30:47.885Z,53.97
2018-11-03T10:33:17.144Z,55.08
2018-11-03T10:35:46.357Z,54.31
2018-11-03T10:38:15.553Z,54.68
2018-11-03T10:40:44.710Z,54.97
2018-11-03T10:43:14.651Z,54.97
2018-11-03T10:45:43.809Z,54.86
2018-11-03T10:48:12.997Z,53.70
2018-11-03T10:50:42.592Z,54.07
2018-11-03T10:53:12.646Z,54.27
2018-11-03T10:55:42.518Z,55.09
2018-11-03T10:58:12.134Z,54.47
2018-11-03T11:00:47.884Z,54.20
2018-11-03T11:03:23.441Z,55.54
2018-11-03T11:05:58.616Z,55.21
2018-11-03T11:08:34.095Z,54.50
2018-11-03T11:11:09.939Z,53.59
2018-11-03T11:13:41.304Z,54.43
2018-11-03T11:16:13.516Z,54.00
2018-11-03T11:18:43.723Z,53.38
2018-11-03T11:21:12.977Z,54.00
2018-11-03T11:23:42.224Z,53.10
2018-11-03T11:26:11.491Z,53.46
2018-11-03T11:28:40.695Z,53.93
2018-11-03T11:31:10.293Z,54.82
2018-11-03T11:33:39.488Z,53.67
2018-11-03T11:36:08.934Z,53.62
2018-11-03T11:38:38.183Z,54.82
2018-11-03T11:41:07.343Z,54.37
2018-11-03T11:43:36.611Z,53.62
2018-11-03T11:46:05.958Z,52.93
2018-11-03T11:48:35.161Z,52.74
2018-11-03T11:51:04.590Z,53.07
2018-11-03T11:53:33.817Z,53.04
2018-11-03T11:56:03.065Z,52.91
2018-11-03T11:58:32.264Z,52.00
2018-11-03T12:01:01.524Z,52.07
2018-11-03T12:03:30.773Z,52.02
2018-11-03T12:05:59.960Z,52.68
2018-11-03T12:08:29.142Z,52.90
2018-11-03T12:10:58.287Z,52.60
2018-11-03T12:13:27.505Z,51.38
2018-11-03T12:15:56.810Z,52.57
2018-11-03T12:18:25.963Z,52.21
2018-11-03T12:20:55.151Z,51.88
2018-11-03T12:23:24.377Z,51.30
2018-11-03T12:25:53.568Z,51.67
2018-11-03T12:28:22.869Z,51.79
2018-11-03T12:30:52.106Z,51.33
2018-11-03T12:33:21.334Z,50.21
2018-11-03T12:35:50.541Z,51.20
2018-11-03T12:38:19.756Z,51.37
2018-11-03T12:40:49.036Z,51.35
2018-11-03T12:43:18.141Z,51.46
2018-11-03T12:45:47.369Z,51.15
2018-11-03T12:48:16.706Z,52.76
2018-11-03T12:50:45.743Z,51.52
2018-11-03T12:53:14.899Z,52.41
2018-11-03T12:55:44.071Z,52.17
2018-11-03T12:58:13.311Z,51.73
2018-11-03T13:00:42.536Z,51.87
2018-11-03T13:03:12.003Z,51.86
2018-11-03T13:05:41.171Z,52.37
2018-11-03T13:08:10.716Z,51.48
2018-11-03T13:10:39.892Z,51.46
2018-11-03T13:13:09.471Z,50.71
2018-11-03T13:15:38.673Z,51.70
2018-11-03T13:18:08.290Z,51.37
2018-11-03T13:20:37.499Z,50.67
2018-11-03T13:23:06.713Z,51.21
2018-11-03T13:25:36.083Z,51.02
2018-11-03T13:28:05.809Z,51.82
2018-11-03T13:30:35.030Z,51.11
2018-11-03T13:33:04.272Z,50.49
2018-11-03T13:35:33.464Z,51.62
2018-11-03T13:38:02.639Z,51.20
2018-11-03T13:40:31.827Z,52.01
2018-11-03T13:43:01.032Z,51.92
2018-11-03T13:45:30.222Z,52.25
2018-11-03T13:47:59.506Z,51.46
2018-11-03T13:50:28.671Z,50.78
2018-11-03T13:52:57.833Z,52.18
2018-11-03T13:55:27.033Z,51.63
2018-11-03T13:57:56.219Z,51.71
2018-11-03T14:00:25.531Z,51.66
2018-11-03T14:02:54.746Z,51.06
2018-11-03T14:05:23.910Z,50.93
2018-11-03T14:07:53.091Z,50.82
2018-11-03T14:10:22.307Z,51.03
2018-11-03T14:12:51.501Z,51.85
2018-11-03T14:15:20.712Z,51.94
2018-11-03T14:17:49.880Z,51.06
2018-11-03T14:20:19.059Z,52.01
2018-11-03T14:22:48.232Z,51.49
2018-11-03T14:25:18.176Z,52.31
2018-11-03T14:27:48.015Z,51.81
2018-11-03T14:30:17.179Z,51.94
2018-11-03T14:32:46.387Z,51.31
2018-11-03T14:35:16.157Z,51.75
2018-11-03T14:37:45.318Z,50.91
2018-11-03T14:40:15.767Z,50.59
2018-11-03T14:42:45.517Z,50.62
2018-11-03T14:45:15.574Z,50.50
2018-11-03T14:47:44.772Z,50.98
2018-11-03T14:50:14.224Z,51.83
2018-11-03T14:52:43.990Z,51.31
2018-11-03T14:55:13.841Z,52.07
2018-11-03T14:57:43.032Z,51.83
2018-11-03T15:00:15.132Z,51.73
2018-11-03T15:02:44.294Z,52.33
2018-11-03T15:05:17.597Z,51.05
2018-11-03T15:07:46.766Z,51.91
2018-11-03T15:10:15.939Z,52.51
2018-11-03T15:12:45.573Z,52.43
2018-11-03T15:15:15.743Z,52.00
2018-11-03T15:17:45.296Z,52.78
2018-11-03T15:20:14.571Z,53.70
2018-11-03T15:22:45.135Z,53.92
2018-11-03T15:25:41.667Z,54.31
2018-11-03T15:28:11.230Z,53.61
2018-11-03T15:30:40.463Z,53.77
2018-11-03T15:33:10.160Z,53.93
2018-11-03T15:35:39.388Z,54.05
2018-11-03T15:38:08.988Z,54.39
2018-11-03T15:40:38.205Z,54.45
2018-11-03T15:43:07.785Z,55.03
2018-11-03T15:45:37.023Z,56.02
2018-11-03T15:48:06.194Z,56.75
2018-11-03T15:50:39.538Z,56.75
2018-11-03T15:53:08.953Z,57.25
2018-11-03T15:55:38.591Z,57.56
2018-11-03T15:58:08.070Z,56.99
2018-11-03T16:00:37.763Z,56.97
2018-11-03T16:03:06.989Z,57.29
2018-11-03T16:05:36.195Z,56.54
2018-11-03T16:08:05.540Z,55.97
2018-11-03T16:10:34.804Z,56.08
2018-11-03T16:13:04.028Z,56.08
2018-11-03T16:15:33.358Z,56.31
2018-11-03T16:18:02.561Z,56.56
2018-11-03T16:20:31.776Z,56.11
2018-11-03T16:23:00.946Z,56.96
2018-11-03T16:25:30.170Z,57.09
2018-11-03T16:27:59.308Z,57.06
2018-11-03T16:30:28.480Z,58.00
2018-11-03T16:32:57.670Z,58.27
2018-11-03T16:35:26.902Z,57.50
2018-11-03T16:37:56.091Z,57.85
2018-11-03T16:40:25.335Z,57.93
2018-11-03T16:42:54.532Z,58.42
2018-11-03T16:45:23.737Z,58.98
2018-11-03T16:47:53.008Z,59.18
2018-11-03T16:50:22.740Z,59.22
2018-11-03T16:52:51.934Z,59.43
2018-11-03T16:55:21.210Z,59.96
2018-11-03T16:57:50.447Z,59.82
2018-11-03T17:00:19.898Z,60.29
2018-11-03T17:02:49.155Z,60.01
2018-11-03T17:05:19.432Z,59.80
2018-11-03T17:07:48.607Z,60.48
2018-11-03T17:10:19.619Z,60.08
2018-11-03T17:12:49.088Z,61.00
2018-11-03T17:15:18.275Z,60.87
2018-11-03T17:17:47.561Z,60.93
2018-11-03T17:20:17.881Z,60.99
2018-11-03T17:22:47.265Z,60.98
2018-11-03T17:25:17.167Z,61.65
2018-11-03T17:27:46.353Z,61.11
2018-11-03T17:30:16.648Z,61.13
2018-11-03T17:32:45.990Z,61.58
2018-11-03T17:35:16.308Z,62.17
2018-11-03T17:37:45.626Z,61.80
2018-11-03T17:40:15.776Z,61.43
2018-11-03T17:42:45.466Z,62.53
2018-11-03T17:45:15.826Z,62.20
2018-11-03T17:47:44.983Z,61.53
2018-11-03T17:50:15.081Z,62.68
2018-11-03T17:52:44.248Z,62.22
2018-11-03T17:55:13.400Z,61.86
2018-11-03T17:57:42.598Z,62.41
2018-11-03T18:00:14.171Z,63.48
2018-11-03T18:02:44.462Z,63.16
2018-11-03T18:05:14.547Z,62.78
2018-11-03T18:07:43.788Z,63.47
2018-11-03T18:10:13.640Z,63.67
2018-11-03T18:12:43.686Z,63.56
2018-11-03T18:15:13.588Z,63.17
2018-11-03T18:17:43.251Z,63.78
2018-11-03T18:20:12.615Z,63.82
2018-11-03T18:22:41.803Z,63.59
2018-11-03T18:25:10.983Z,63.43
2018-11-03T18:27:40.135Z,63.15
2018-11-03T18:30:10.472Z,63.05
2018-11-03T18:32:40.319Z,63.66
2018-11-03T18:35:09.713Z,63.46
2018-11-03T18:37:38.947Z,63.79
2018-11-03T18:40:08.538Z,64.04
2018-11-03T18:42:38.013Z,63.42
2018-11-03T18:45:07.578Z,64.27
2018-11-03T18:47:38.351Z,63.95
2018-11-03T18:50:10.944Z,64.51
2018-11-03T18:52:40.307Z,63.97
2018-11-03T18:55:10.391Z,64.69
2018-11-03T19:00:31.415Z,63.91
2018-11-03T19:03:00.787Z,63.33
2018-11-03T19:05:29.948Z,63.77
2018-11-03T19:07:59.153Z,63.22
2018-11-03T19:10:28.324Z,63.52
2018-11-03T19:12:57.591Z,62.75
2018-11-03T19:15:26.741Z,62.88
2018-11-03T19:17:55.926Z,63.41
2018-11-03T19:20:25.260Z,63.16
2018-11-03T19:22:54.487Z,63.10
2018-11-03T19:25:24.735Z,62.30
2018-11-03T19:27:53.963Z,61.99
2018-11-03T19:30:23.344Z,62.17
2018-11-03T19:32:52.532Z,62.14
2018-11-03T19:35:21.701Z,62.52
2018-11-03T19:37:50.929Z,62.59
2018-11-03T19:40:20.409Z,61.94
2018-11-03T19:42:49.666Z,62.82
2018-11-03T19:45:19.390Z,62.39
2018-11-03T19:47:48.621Z,62.18
2018-11-03T19:50:18.560Z,61.62
2018-11-03T19:52:47.761Z,62.26
2018-11-03T19:55:20.568Z,61.87
2018-11-03T19:57:49.755Z,61.95
2018-11-03T20:00:19.588Z,62.33
2018-11-03T20:02:48.860Z,63.42
2018-11-03T20:05:18.874Z,62.38
2018-11-03T20:07:48.055Z,61.59
2018-11-03T20:10:17.847Z,61.94
2018-11-03T20:12:47.040Z,62.05
2018-11-03T20:15:17.247Z,61.79
2018-11-03T20:17:46.497Z,62.92
2018-11-03T20:20:17.656Z,62.09
2018-11-03T20:22:46.840Z,62.71
2018-11-03T20:25:17.281Z,61.76
2018-11-03T20:27:46.468Z,61.68
2018-11-03T20:30:18.189Z,61.72
2018-11-03T20:32:47.429Z,61.94
2018-11-03T20:35:17.955Z,62.62
2018-11-03T20:37:47.205Z,62.80
2018-11-03T20:40:17.157Z,62.62
2018-11-03T20:42:46.350Z,62.58
2018-11-03T20:45:16.003Z,61.91
2018-11-03T20:47:45.146Z,62.22
2018-11-03T20:50:15.558Z,62.13
2018-11-03T20:52:44.770Z,62.68
2018-11-03T20:55:14.490Z,62.68
2018-11-03T20:57:43.683Z,62.42
2018-11-03T21:00:15.007Z,62.92
2018-11-03T21:02:44.839Z,62.94
2018-11-03T21:05:14.493Z,63.12
2018-11-03T21:07:44.287Z,62.35
2018-11-03T21:10:14.327Z,61.99
2018-11-03T21:12:43.553Z,62.28
2018-11-03T21:15:12.943Z,63.56
2018-11-03T21:17:42.137Z,62.54
2018-11-03T21:20:14.216Z,63.14
2018-11-03T21:22:43.463Z,62.92
2018-11-03T21:25:13.000Z,62.12
2018-11-03T21:27:42.203Z,63.87
2018-11-03T21:30:13.243Z,63.42
2018-11-03T21:32:42.565Z,62.73
2018-11-03T21:35:11.929Z,63.02
2018-11-03T21:37:41.065Z,62.50
2018-11-03T21:40:10.372Z,62.49
2018-11-03T21:42:39.552Z,62.81
2018-11-03T21:45:09.714Z,63.52
2018-11-03T21:47:39.177Z,62.52
2018-11-03T21:50:08.613Z,62.25
2018-11-03T21:52:37.795Z,62.84
2018-11-03T21:55:07.319Z,62.34
2018-11-03T21:57:36.614Z,63.03
2018-11-03T22:00:07.776Z,62.54
2018-11-03T22:02:36.964Z,62.32
2018-11-03T22:05:06.947Z,62.58
2018-11-03T22:07:36.183Z,63.11
2018-11-03T22:10:06.205Z,62.95
2018-11-03T22:12:35.448Z,62.84
2018-11-03T22:15:05.059Z,62.92
2018-11-03T22:17:34.327Z,62.88
2018-11-03T22:20:03.534Z,62.55
2018-11-03T22:22:32.928Z,63.23
2018-11-03T22:25:02.293Z,62.45
2018-11-03T22:27:31.445Z,62.99
2018-11-03T22:30:00.698Z,63.48
2018-11-03T22:32:29.848Z,63.23
2018-11-03T22:34:59.068Z,62.55
2018-11-03T22:37:28.291Z,62.76
2018-11-03T22:39:57.510Z,62.55
2018-11-03T22:42:26.863Z,62.60
2018-11-03T22:44:56.089Z,62.52
2018-11-03T22:47:25.300Z,62.73
2018-11-03T22:49:54.489Z,62.17
2018-11-03T22:52:23.702Z,63.11
2018-11-03T22:54:52.853Z,63.37
2018-11-03T22:57:22.008Z,63.42
2018-11-03T22:59:51.263Z,62.44
2018-11-03T23:02:20.506Z,62.62
2018-11-03T23:04:49.926Z,63.08
2018-11-03T23:07:19.082Z,63.00
2018-11-03T23:09:48.360Z,62.20
2018-11-03T23:12:19.572Z,62.74
2018-11-03T23:14:48.859Z,62.38
2018-11-03T23:17:18.388Z,62.51
2018-11-03T23:19:47.603Z,62.81
2018-11-03T23:22:17.176Z,63.28
2018-11-03T23:24:46.321Z,62.92
2018-11-03T23:27:15.771Z,63.18
2018-11-03T23:29:45.255Z,63.28
2018-11-03T23:32:15.067Z,63.36
2018-11-03T23:34:45.973Z,63.37
2018-11-03T23:37:15.752Z,63.10
2018-11-03T23:39:44.940Z,62.62
2018-11-03T23:42:14.845Z,63.02
2018-11-03T23:44:44.062Z,63.85
2018-11-03T23:47:13.379Z,63.95
2018-11-03T23:49:42.551Z,63.89
2018-11-03T23:52:11.716Z,64.37
2018-11-03T23:54:41.009Z,64.09
2018-11-03T23:57:10.200Z,63.79
2018-11-03T23:59:39.493Z,64.24
